Blue Mounds, Wisconsin
Current Conditions -  °F | °C
As of 6:15 PM on Sunday 23 Nov 2014 (Local Time) from KC29 Reporting Station
Overcast Overcast  
Wind Chill: 48°   Ceiling: 300
Heat Index: 48°   Visibility: 2.5mi
Dew Point: 48°   Wind: 3mph
Humidity: 100%   Direction: 110°ESE
Pressure: 29.34"   Gusts: NA
Location:  43.02°N, 89.83°W
Report Text: KC29 240015Z AUTO 11003KT 2 1/2SM OVC003 09/09 A2934 RMK AO1 P0001 T00900090
Loading
Personal Weather Stations






























Interactive Weather Map New forecast layout! Learn more

10-Day Weather Forecast

Advertisements
Track Severe Weather on mobile